Foley, Alabama
Current Conditions -  °F | °C
As of 2:15 PM on Wednesday 28 Jan 2015 (Local Time) from KJKA Reporting Station
Clear Clear  
Wind Chill: 59°   Ceiling: Unl
Heat Index: 59°   Visibility: 10mi
Dew Point: 40°   Wind: 3mph
Humidity: 50%   Direction: 200°SSW
Pressure: 30.22"   Gusts: NA
Location:  30.41°N, 87.68°W
Report Text: KJKA 282015Z AUTO 20003KT 10SM CLR 15/05 A3022 RMK AO2 T01510046
Loading
Personal Weather Stations






























Interactive Weather Map New forecast layout! Learn more

10-Day Weather Forecast

Advertisements
Track Severe Weather on mobile